Time;durP1;ratioP1;P1;durP2;ratioP2;P2;SDS_P1;SDS_P2;PMS_P1;PMS_P2;Temp;Humidity;BMP_temperature;BMP_pressure;BME280_temperature;BME280_humidity;BME280_pressure;Samples;Min_cycle;Max_cycle;Signal;HPM_P1;HPM_P2
2022/12/10 09:07:10;;;;;;;;;21.75;21.25;;;;;5.06;100.00;101027.63;5731738;23;49637;-70
2022/12/10 09:09:36;;;;;;;;;30.25;24.00;;;;;4.84;100.00;101003.19;4914656;28;52053;-67
2022/12/10 09:12:02;;;;;;;;;27.00;21.50;;;;;5.14;100.00;101016.75;4914842;28;49903;-67
2022/12/10 09:14:27;;;;;;;;;26.25;23.50;;;;;5.06;100.00;101027.63;4915531;28;49827;-69
2022/12/10 09:16:52;;;;;;;;;25.50;19.75;;;;;5.21;100.00;101009.19;4915504;28;49917;-66
2022/12/10 09:19:18;;;;;;;;;26.75;22.00;;;;;5.41;100.00;101042.28;4915013;28;50377;-67
2022/12/10 09:21:43;;;;;;;;;34.50;32.75;;;;;5.44;100.00;101039.81;4914598;28;49785;-68
2022/12/10 09:24:09;;;;;;;;;25.50;21.50;;;;;5.29;100.00;100989.63;4915069;28;49837;-67
2022/12/10 09:26:34;;;;;;;;;30.75;26.00;;;;;5.74;100.00;101049.00;4915331;28;49851;-65
2022/12/10 09:29:00;;;;;;;;;25.50;23.00;;;;;5.65;100.00;101019.03;4913607;28;50347;-65
2022/12/10 09:31:26;;;;;;;;;27.25;26.00;;;;;5.58;100.00;100996.16;4915199;28;49724;-66
2022/12/10 09:33:52;;;;;;;;;32.25;24.75;;;;;5.77;100.00;101013.47;4915417;28;49735;-66
2022/12/10 09:36:19;;;;;;;;;38.50;35.00;;;;;5.92;100.00;101048.97;4915254;28;49596;-68
2022/12/10 09:38:45;;;;;;;;;31.00;29.50;;;;;5.84;100.00;101028.56;4913935;28;50493;-67
2022/12/10 09:41:16;;;;;;;;;40.75;32.00;;;;;6.00;99.69;101044.09;4914075;28;49893;-69
2022/12/10 09:43:51;;;;;;;;;30.75;23.25;;;;;5.98;98.80;101048.31;4914418;28;49604;-72
2022/12/10 09:46:33;;;;;;;;;31.50;24.75;;;;;5.69;98.76;101003.63;4915132;28;50011;-67
2022/12/10 09:48:58;;;;;;;;;25.75;21.50;;;;;5.99;98.13;101055.34;4929192;28;52174;-66
2022/12/10 09:51:28;;;;;;;;;31.75;27.25;;;;;5.98;99.14;101059.66;4915144;28;49679;-64
2022/12/10 09:53:58;;;;;;;;;31.75;24.75;;;;;5.95;98.65;101049.09;4914594;28;49813;-62
2022/12/10 09:56:32;;;;;;;;;30.25;23.25;;;;;6.10;98.85;101064.50;4915381;28;49791;-63
2022/12/10 09:59:03;;;;;;;;;30.25;24.75;;;;;5.53;98.23;100953.41;4912903;28;51074;-66
2022/12/10 10:01:32;;;;;;;;;28.00;27.75;;;;;6.11;95.15;101053.25;4914561;28;49716;-77
2022/12/10 10:03:57;;;;;;;;;33.25;24.50;;;;;5.69;93.92;100995.81;4917482;28;49855;-66
2022/12/10 10:06:25;;;;;;;;;26.00;25.25;;;;;5.79;94.48;101030.06;4918058;28;49883;-69
2022/12/10 10:08:58;;;;;;;;;31.50;24.75;;;;;6.05;95.61;101062.50;4917350;28;50519;-70
2022/12/10 10:11:29;;;;;;;;;31.75;28.00;;;;;6.17;95.01;101074.34;4917832;28;49817;-70
2022/12/10 10:14:00;;;;;;;;;28.00;24.00;;;;;6.08;92.86;101047.00;4932631;28;50020;-70
2022/12/10 10:16:32;;;;;;;;;32.25;26.50;;;;;6.24;93.15;101059.88;4918956;28;49831;-69
2022/12/10 10:19:03;;;;;;;;;31.75;25.25;;;;;6.30;94.34;101053.22;4917812;28;50577;-70
2022/12/10 10:21:35;;;;;;;;;23.25;19.25;;;;;4.91;93.01;100796.25;4917566;28;49798;-69
2022/12/10 10:24:01;;;;;;;;;27.75;23.75;;;;;6.44;92.74;101059.00;4911728;28;50002;-69
2022/12/10 10:26:28;;;;;;;;;26.75;24.25;;;;;5.62;91.79;100901.72;4918131;28;49807;-74
2022/12/10 10:29:01;;;;;;;;;26.50;23.00;;;;;5.73;91.16;100927.38;4911532;28;49762;-69
2022/12/10 10:31:29;;;;;;;;;21.75;21.50;;;;;5.98;90.80;100972.75;4917237;28;49735;-70
2022/12/10 10:33:58;;;;;;;;;27.75;25.00;;;;;5.77;91.46;100909.28;4917656;28;49650;-71
2022/12/10 10:36:35;;;;;;;;;27.75;27.50;;;;;6.81;90.28;101052.69;4917628;28;49730;-69
2022/12/10 10:39:11;;;;;;;;;24.75;24.00;;;;;6.57;90.94;101019.59;4917644;28;49874;-74
2022/12/10 10:41:39;;;;;;;;;27.50;21.75;;;;;6.35;90.06;100958.66;4915136;28;49815;-76
2022/12/10 10:44:12;;;;;;;;;32.25;26.00;;;;;6.95;90.14;101048.03;4914763;28;49781;-71
2022/12/10 10:46:39;;;;;;;;;31.00;28.75;;;;;6.90;90.67;101034.81;4917371;28;49759;-70
2022/12/10 10:49:28;;;;;;;;;29.75;25.75;;;;;6.99;89.26;101060.38;4916610;28;49889;-77
2022/12/10 10:51:59;;;;;;;;;27.00;23.75;;;;;6.93;88.70;101057.50;4916993;28;49879;-75
2022/12/10 10:54:36;;;;;;;;;29.50;24.25;;;;;6.56;87.63;101012.59;4917566;28;49867;-74
2022/12/10 10:57:06;;;;;;;;;34.00;26.50;;;;;6.24;88.13;100976.44;4927530;28;49941;-65
2022/12/10 10:59:37;;;;;;;;;25.75;22.50;;;;;6.79;87.85;101064.81;4932056;28;50636;-66
2022/12/10 11:02:17;;;;;;;;;32.75;28.75;;;;;6.64;86.98;101048.50;4917378;28;49849;-70
2022/12/10 11:04:48;;;;;;;;;26.25;24.50;;;;;6.87;88.05;101068.63;4916850;28;49679;-72
2022/12/10 11:07:37;;;;;;;;;27.75;23.50;;;;;6.96;86.23;101060.28;4917174;28;49763;-75
2022/12/10 11:10:24;;;;;;;;;29.50;25.00;;;;;7.00;87.12;101059.56;4916900;28;50500;-70
2022/12/10 11:13:22;;;;;;;;;39.25;33.25;;;;;7.05;88.99;101055.41;4913560;28;49905;-70
2022/12/10 11:15:57;;;;;;;;;34.25;28.25;;;;;7.11;88.90;101051.31;4917272;28;49711;-70
2022/12/10 11:18:45;;;;;;;;;30.75;28.00;;;;;7.18;87.52;101055.94;4912086;28;49794;-70
2022/12/10 11:21:14;;;;;;;;;30.50;29.00;;;;;7.24;88.57;101049.16;4913385;28;50151;-68
2022/12/10 11:23:43;;;;;;;;;31.00;24.25;;;;;7.28;87.88;101032.81;4916974;28;49662;-83
2022/12/10 11:26:17;;;;;;;;;31.50;25.75;;;;;6.76;87.68;100929.00;4917073;28;49659;-70
2022/12/10 11:28:43;;;;;;;;;23.25;23.25;;;;;7.49;87.94;101038.84;4931784;28;49661;-75
2022/12/10 11:31:23;;;;;;;;;26.25;23.00;;;;;7.57;86.16;101039.13;4916348;28;49794;-71
2022/12/10 11:34:13;;;;;;;;;27.00;22.00;;;;;7.65;85.88;101043.81;4916614;28;50097;-73
2022/12/10 11:37:00;;;;;;;;;33.75;27.25;;;;;7.61;86.35;101046.22;4916650;28;49878;-75
2022/12/10 11:39:55;;;;;;;;;28.75;25.75;;;;;7.44;86.25;101012.56;4913701;28;50056;-74
2022/12/10 11:42:23;;;;;;;;;22.00;22.00;;;;;7.66;84.57;101045.59;4914902;28;50653;-74
2022/12/10 11:45:18;;;;;;;;;28.75;27.25;;;;;7.44;84.25;101014.28;4915590;28;50163;-76
2022/12/10 11:47:47;;;;;;;;;28.00;22.50;;;;;7.54;84.43;101047.75;4916404;28;49643;-74
2022/12/10 11:50:47;;;;;;;;;29.50;27.00;;;;;7.31;83.83;101018.13;4915168;28;49830;-74
2022/12/10 11:53:34;;;;;;;;;28.00;26.00;;;;;7.33;84.10;101050.41;4916148;28;49894;-74
2022/12/10 11:56:15;;;;;;;;;27.50;26.00;;;;;7.21;84.08;101055.16;4916449;28;49822;-75
2022/12/10 11:59:07;;;;;;;;;27.25;23.50;;;;;6.95;85.08;101024.53;4916284;28;49791;-75
2022/12/10 12:01:51;;;;;;;;;33.00;23.75;;;;;7.02;86.52;101060.50;4915442;28;49716;-74
2022/12/10 12:04:26;;;;;;;;;34.50;27.75;;;;;7.03;87.25;101049.22;4916271;28;50742;-77
2022/12/10 12:06:51;;;;;;;;;26.25;20.25;;;;;6.97;86.50;101042.06;4910712;28;49756;-74
2022/12/10 12:09:19;;;;;;;;;20.75;19.25;;;;;6.94;86.71;101054.06;4916125;28;49943;-73
2022/12/10 12:11:52;;;;;;;;;22.50;18.00;;;;;6.97;86.55;101047.28;4916323;28;49953;-76
2022/12/10 12:14:26;;;;;;;;;32.00;26.75;;;;;6.93;87.38;101034.03;4915963;28;49976;-75
2022/12/10 12:17:04;;;;;;;;;17.00;15.50;;;;;6.37;87.53;100924.00;4916233;28;49804;-73
2022/12/10 12:19:39;;;;;;;;;30.75;26.00;;;;;7.14;87.07;101054.06;4915979;28;49961;-76
2022/12/10 12:22:20;;;;;;;;;13.50;6.00;;;;;7.19;86.98;101051.63;4915852;28;49552;-77
2022/12/10 12:24:48;;;;;;;;;24.25;22.00;;;;;7.23;85.74;101050.00;4915427;28;49826;-74
2022/12/10 12:27:23;;;;;;;;;26.75;23.00;;;;;7.30;86.20;101050.31;4915533;28;49731;-77
2022/12/10 12:30:01;;;;;;;;;30.00;25.00;;;;;6.58;85.20;100903.97;4915867;28;49735;-78
2022/12/10 12:32:35;;;;;;;;;30.00;25.75;;;;;7.16;85.83;101005.41;4916187;28;49896;-73
2022/12/10 12:35:27;;;;;;;;;30.50;24.50;;;;;6.71;85.18;100936.66;4915926;28;49783;-74
2022/12/10 12:37:59;;;;;;;;;19.50;17.50;;;;;7.64;85.12;101042.03;4911728;28;49974;-74
2022/12/10 12:40:24;;;;;;;;;29.75;21.75;;;;;7.63;84.68;101036.75;4915882;28;49797;-74
2022/12/10 12:43:09;;;;;;;;;25.00;23.50;;;;;7.25;83.76;100986.59;4916156;28;49765;-72
2022/12/10 12:45:45;;;;;;;;;28.25;23.75;;;;;7.41;83.99;101003.69;4911802;28;51418;-73
2022/12/10 12:48:42;;;;;;;;;27.75;23.50;;;;;7.56;83.89;101045.19;4915909;28;49826;-72
2022/12/10 12:51:18;;;;;;;;;21.50;18.50;;;;;7.63;83.81;101047.19;4910701;28;50177;-72
2022/12/10 12:53:44;;;;;;;;;21.25;18.75;;;;;7.53;82.16;101008.47;4914687;28;49858;-73
2022/12/10 12:56:21;;;;;;;;;21.25;18.50;;;;;7.62;82.44;101043.66;4915470;28;50320;-72
2022/12/10 12:59:26;;;;;;;;;27.00;24.25;;;;;7.64;82.22;101035.91;4915530;28;49666;-74
2022/12/10 13:02:20;;;;;;;;;18.75;16.75;;;;;7.52;82.59;101001.47;4915669;28;49779;-74
2022/12/10 13:04:46;;;;;;;;;24.25;17.00;;;;;7.72;82.31;101035.38;4915337;28;49727;-76
2022/12/10 13:07:15;;;;;;;;;14.50;14.50;;;;;7.72;81.79;101034.44;4914862;28;50388;-76
2022/12/10 13:09:46;;;;;;;;;24.00;19.00;;;;;7.49;81.15;101001.38;4915488;28;49897;-75
2022/12/10 13:12:14;;;;;;;;;16.75;16.75;;;;;7.65;81.42;101035.97;4915472;28;50072;-76
2022/12/10 13:15:02;;;;;;;;;25.75;21.25;;;;;7.62;81.16;101040.16;4915589;28;50230;-75
2022/12/10 13:17:35;;;;;;;;;15.00;15.00;;;;;7.52;80.50;101036.31;4915227;28;50504;-75
2022/12/10 13:20:28;;;;;;;;;30.00;24.75;;;;;7.51;81.47;101041.50;4915176;28;49821;-74
2022/12/10 13:22:57;;;;;;;;;22.00;17.00;;;;;7.44;81.34;101037.78;4929999;28;49813;-73
2022/12/10 13:25:45;;;;;;;;;18.00;17.50;;;;;6.27;80.72;100875.81;4915576;28;49758;-74
2022/12/10 13:28:25;;;;;;;;;16.75;16.75;;;;;6.73;80.87;100952.34;4915072;28;49721;-76
2022/12/10 13:31:17;;;;;;;;;22.50;20.25;;;;;7.24;81.49;101055.31;4915334;28;49655;-77
2022/12/10 13:34:21;;;;;;;;;17.25;16.75;;;;;6.79;82.24;100986.53;4915456;28;50044;-74
2022/12/10 13:36:46;;;;;;;;;26.75;22.00;;;;;7.13;82.05;101053.97;4914895;28;49680;-73
2022/12/10 13:39:29;;;;;;;;;23.00;23.00;;;;;7.08;82.89;101066.84;4918347;28;53089;-73
2022/12/10 13:45:22;;;;;;;;;25.50;21.75;;;;;7.11;83.01;101060.88;4916608;28;49926;-73
2022/12/10 13:47:52;;;;;;;;;22.00;22.00;;;;;6.87;83.87;101006.00;4918746;28;49608;-74
2022/12/10 13:50:24;;;;;;;;;23.50;23.50;;;;;7.15;83.21;101060.16;4918015;28;49780;-74
2022/12/10 13:53:01;;;;;;;;;21.00;19.00;;;;;7.18;83.62;101068.13;4918325;28;49806;-74
2022/12/10 13:55:45;;;;;;;;;24.00;22.00;;;;;6.14;82.97;100896.09;4918345;28;49530;-75
2022/12/10 13:58:19;;;;;;;;;23.75;21.00;;;;;7.12;84.36;101073.97;4918465;28;49758;-72
2022/12/10 14:01:12;;;;;;;;;28.25;17.25;;;;;7.12;82.85;101068.75;4917886;28;50597;-74
2022/12/10 14:03:46;;;;;;;;;22.50;20.50;;;;;7.10;82.92;101070.41;4915450;28;49586;-74
2022/12/10 14:06:38;;;;;;;;;19.25;16.25;;;;;7.04;83.28;101079.72;4917832;28;49732;-73
2022/12/10 14:09:12;;;;;;;;;22.25;20.75;;;;;7.01;84.21;101103.97;4918347;28;49786;-76
2022/12/10 14:11:45;;;;;;;;;24.25;20.50;;;;;6.93;84.33;101063.63;4917756;28;50073;-76
2022/12/10 14:14:16;;;;;;;;;18.50;18.50;;;;;7.03;84.64;101076.22;4918046;28;49842;-76
2022/12/10 14:16:42;;;;;;;;;24.75;21.00;;;;;6.83;84.37;101032.78;4917950;28;49601;-74
2022/12/10 14:19:14;;;;;;;;;25.00;23.00;;;;;6.94;83.71;101056.69;4918164;28;49684;-73
2022/12/10 14:21:42;;;;;;;;;26.00;24.00;;;;;6.75;83.50;101029.84;4917395;28;49782;-74
2022/12/10 14:24:30;;;;;;;;;23.50;22.25;;;;;7.01;84.55;101096.16;4917886;28;49719;-73
2022/12/10 14:27:09;;;;;;;;;27.75;25.25;;;;;6.98;83.70;101095.16;4917864;28;49861;-80
2022/12/10 14:29:35;;;;;;;;;22.00;18.50;;;;;6.89;83.02;101099.16;4917966;28;49855;-77
2022/12/10 14:32:02;;;;;;;;;23.25;22.25;;;;;5.74;84.05;100910.03;4917501;28;55589;-80
2022/12/10 14:34:28;;;;;;;;;21.00;18.75;;;;;6.17;84.19;100990.06;4917686;28;49787;-74
2022/12/10 14:36:57;;;;;;;;;22.00;20.00;;;;;6.72;84.41;101074.09;4917127;28;49887;-73
2022/12/10 14:39:31;;;;;;;;;24.75;23.75;;;;;6.85;84.14;101094.66;4917982;28;49783;-74
2022/12/10 14:42:03;;;;;;;;;27.75;22.75;;;;;6.65;84.67;101069.44;4917399;28;49738;-73
2022/12/10 14:44:30;;;;;;;;;23.25;22.50;;;;;6.55;84.16;101051.63;4917885;28;49780;-73
2022/12/10 14:47:12;;;;;;;;;23.25;20.25;;;;;6.69;83.53;101107.00;4917558;28;49916;-74
2022/12/10 14:49:43;;;;;;;;;21.25;19.75;;;;;6.59;84.29;101104.00;4917045;28;49671;-74
2022/12/10 14:52:15;;;;;;;;;25.25;22.00;;;;;6.53;83.76;101122.00;4916875;28;50875;-81
2022/12/10 14:54:41;;;;;;;;;26.00;24.75;;;;;6.43;85.00;101103.28;4917453;28;49833;-80
2022/12/10 14:57:17;;;;;;;;;20.75;18.75;;;;;6.45;85.85;101101.63;4917238;28;49694;-77
2022/12/10 15:00:04;;;;;;;;;26.75;25.50;;;;;6.40;85.84;101098.84;4917540;28;49639;-73
2022/12/10 15:02:39;;;;;;;;;30.25;22.00;;;;;6.35;86.12;101099.44;4912614;28;50836;-78
2022/12/10 15:05:16;;;;;;;;;25.75;22.50;;;;;5.93;86.50;101040.31;4916976;28;49819;-76
2022/12/10 15:07:50;;;;;;;;;23.75;23.00;;;;;5.93;86.63;101045.53;4917008;28;49799;-77
2022/12/10 15:10:20;;;;;;;;;23.75;23.25;;;;;6.08;86.54;101084.41;4917365;28;49767;-75
2022/12/10 15:12:49;;;;;;;;;32.75;25.00;;;;;4.64;87.46;100850.53;4915601;28;50852;-75
2022/12/10 15:15:34;;;;;;;;;30.50;25.75;;;;;5.74;87.65;101028.16;4917002;28;50437;-73
2022/12/10 15:18:05;;;;;;;;;24.00;24.00;;;;;6.08;87.95;101097.44;4917180;28;49765;-75
2022/12/10 15:20:35;;;;;;;;;27.75;25.50;;;;;6.03;87.78;101094.63;4916527;28;49839;-76
2022/12/10 15:23:17;;;;;;;;;27.00;25.25;;;;;5.71;88.55;101050.59;4916668;28;52376;-72
2022/12/10 15:25:51;;;;;;;;;28.00;26.75;;;;;5.86;88.96;101094.66;4916879;28;49586;-75
2022/12/10 15:28:22;;;;;;;;;26.25;24.25;;;;;5.90;88.83;101104.41;4917053;28;49870;-73
2022/12/10 15:30:51;;;;;;;;;31.50;25.75;;;;;5.82;89.42;101109.25;4916836;28;49866;-73
2022/12/10 15:33:27;;;;;;;;;31.25;26.50;;;;;5.57;90.43;101091.59;4931302;28;52810;-73
2022/12/10 15:35:55;;;;;;;;;28.75;25.25;;;;;5.07;90.84;101029.38;4916285;28;49798;-75
2022/12/10 15:38:21;;;;;;;;;25.75;23.25;;;;;5.66;91.02;101112.88;4916714;28;50240;-78
2022/12/10 15:40:46;;;;;;;;;41.50;34.00;;;;;5.64;91.30;101108.41;4916867;28;49759;-73
2022/12/10 15:43:22;;;;;;;;;23.75;22.50;;;;;5.07;91.39;101027.69;4916329;28;50193;-77
2022/12/10 15:45:50;;;;;;;;;28.00;26.50;;;;;5.49;92.59;101110.31;4916463;28;49736;-75
2022/12/10 15:48:15;;;;;;;;;25.75;25.50;;;;;3.92;92.52;100873.09;4916587;28;49720;-75
2022/12/10 15:50:43;;;;;;;;;30.75;28.75;;;;;5.47;92.99;101108.53;4916589;28;49618;-76
2022/12/10 15:53:12;;;;;;;;;26.75;25.25;;;;;5.44;93.23;101121.41;4910131;28;50461;-73
2022/12/10 15:55:38;;;;;;;;;30.00;26.00;;;;;5.30;93.48;101105.94;4910328;28;50079;-76
2022/12/10 15:58:10;;;;;;;;;41.50;30.00;;;;;4.95;93.40;101047.94;4910140;28;49802;-76
2022/12/10 16:00:35;;;;;;;;;40.75;31.00;;;;;5.14;94.68;101094.81;4909684;28;49800;-73
2022/12/10 16:03:11;;;;;;;;;25.25;23.75;;;;;5.27;94.44;101118.81;4914742;28;50954;-77
2022/12/10 16:05:37;;;;;;;;;29.00;25.00;;;;;5.24;95.11;101127.38;4910897;28;49839;-74
2022/12/10 16:08:20;;;;;;;;;26.00;20.75;;;;;5.21;95.25;101129.84;4916115;28;49846;-75
2022/12/10 16:10:49;;;;;;;;;27.50;24.25;;;;;5.18;95.33;101119.28;4916341;28;50069;-73
2022/12/10 16:13:21;;;;;;;;;28.25;24.25;;;;;4.83;96.14;101060.34;4915876;28;49657;-73
2022/12/10 16:15:57;;;;;;;;;26.50;20.00;;;;;4.86;96.21;101069.19;4916140;28;49626;-74
2022/12/10 16:18:23;;;;;;;;;26.75;23.50;;;;;5.08;96.61;101112.72;4916171;28;49765;-74
2022/12/10 16:20:48;;;;;;;;;32.50;31.75;;;;;5.06;96.70;101113.47;4915596;28;49871;-73
2022/12/10 16:23:14;;;;;;;;;34.50;31.50;;;;;4.88;96.43;101090.94;4915834;28;52004;-73
2022/12/10 16:25:43;;;;;;;;;27.50;25.00;;;;;4.92;97.77;101106.69;4915971;28;49873;-74
2022/12/10 16:28:14;;;;;;;;;37.00;31.25;;;;;4.97;97.67;101120.84;4915956;28;49891;-76
2022/12/10 16:30:48;;;;;;;;;35.00;32.75;;;;;4.81;98.69;101104.47;4916088;28;49602;-74
2022/12/10 16:33:15;;;;;;;;;32.50;27.25;;;;;4.59;98.95;101073.03;4914304;28;51777;-78
2022/12/10 16:35:41;;;;;;;;;37.25;34.00;;;;;4.59;98.61;101080.81;4915593;28;50427;-77
2022/12/10 16:38:08;;;;;;;;;44.00;37.50;;;;;4.85;99.29;101134.16;4915880;28;49862;-73
2022/12/10 16:40:34;;;;;;;;;43.25;34.75;;;;;4.81;99.45;101124.38;4915846;28;49703;-71
2022/12/10 16:42:59;;;;;;;;;34.25;30.00;;;;;4.52;99.65;101084.81;4915418;28;50745;-74
2022/12/10 16:45:36;;;;;;;;;35.75;33.50;;;;;4.52;100.00;101100.41;4915935;28;49722;-72
2022/12/10 16:48:02;;;;;;;;;38.25;34.50;;;;;4.74;100.00;101128.41;4915801;28;49800;-72
2022/12/10 16:50:27;;;;;;;;;38.00;34.25;;;;;4.70;100.00;101126.44;4915327;28;50031;-65
2022/12/10 16:52:55;;;;;;;;;38.25;28.25;;;;;4.68;100.00;101129.81;4915450;28;50418;-75
2022/12/10 16:55:23;;;;;;;;;44.50;38.00;;;;;4.57;100.00;101122.34;4915636;28;49565;-68
2022/12/10 16:57:49;;;;;;;;;34.00;31.75;;;;;4.48;100.00;101114.09;4915558;28;49673;-69
2022/12/10 17:00:21;;;;;;;;;34.75;33.50;;;;;4.63;100.00;101137.34;4915523;28;49870;-69
2022/12/10 17:02:47;;;;;;;;;36.50;32.00;;;;;4.61;100.00;101139.00;4915292;28;50745;-69
2022/12/10 17:05:27;;;;;;;;;45.50;38.00;;;;;4.40;100.00;101118.00;4914945;28;49837;-67
2022/12/10 17:07:52;;;;;;;;;31.75;27.75;;;;;4.57;100.00;101135.34;4915501;28;49998;-69
2022/12/10 17:11:44;;;;;;;;;38.50;30.50;;;;;4.42;100.00;101111.16;4915640;28;49993;-68
2022/12/10 17:13:03;;;;;;;;;27.00;22.25;;;;;4.18;100.00;101069.25;4917934;28;50319;-70
2022/12/10 17:15:28;;;;;;;;;30.25;25.00;;;;;4.50;100.00;101134.97;4919046;28;49702;-68
2022/12/10 17:17:54;;;;;;;;;28.25;25.25;;;;;4.43;100.00;101133.75;4918761;28;50053;-67
2022/12/10 17:20:19;;;;;;;;;39.50;31.00;;;;;4.18;100.00;101094.34;4917817;28;57205;-69
2022/12/10 17:22:46;;;;;;;;;28.50;24.75;;;;;4.39;100.00;101133.53;4918620;28;49627;-68
2022/12/10 17:25:11;;;;;;;;;32.25;30.25;;;;;4.35;100.00;101123.81;4918632;28;49779;-69
2022/12/10 17:27:37;;;;;;;;;27.75;25.25;;;;;4.35;100.00;101121.19;4917782;28;49709;-69
2022/12/10 17:30:03;;;;;;;;;26.25;22.75;;;;;4.35;100.00;101126.41;4918042;28;49712;-67
2022/12/10 17:32:29;;;;;;;;;28.00;27.50;;;;;4.32;100.00;101119.31;4918481;28;50548;-70
2022/12/10 17:34:55;;;;;;;;;27.50;27.00;;;;;4.23;100.00;101104.13;4918181;28;49775;-69
2022/12/10 17:37:22;;;;;;;;;39.25;30.75;;;;;4.22;100.00;101104.94;4916679;28;49794;-64
2022/12/10 17:39:47;;;;;;;;;33.25;26.25;;;;;4.28;100.00;101119.97;4917817;28;49734;-66
2022/12/10 17:42:13;;;;;;;;;38.00;30.00;;;;;4.13;100.00;101107.06;4917053;28;50863;-66
2022/12/10 17:44:38;;;;;;;;;35.50;26.50;;;;;4.06;100.00;101086.81;4918107;28;49723;-71
2022/12/10 17:47:22;;;;;;;;;36.50;34.75;;;;;4.21;100.00;101118.75;4917917;28;49807;-66
2022/12/10 17:49:47;;;;;;;;;32.00;25.50;;;;;4.11;100.00;101113.00;4917044;28;50012;-66
2022/12/10 17:52:13;;;;;;;;;33.75;30.25;;;;;4.14;100.00;101108.84;4918037;28;51033;-66
2022/12/10 17:54:38;;;;;;;;;39.75;32.25;;;;;4.21;100.00;101123.97;4918124;28;49727;-67
2022/12/10 17:57:11;;;;;;;;;32.25;28.75;;;;;4.08;100.00;101113.75;4918348;28;49554;-65
2022/12/10 17:59:37;;;;;;;;;33.75;30.00;;;;;4.01;100.00;101106.44;4917943;28;49814;-72
2022/12/10 18:02:02;;;;;;;;;36.25;32.25;;;;;4.17;100.00;101129.81;4917851;28;50956;-65
2022/12/10 18:04:28;;;;;;;;;46.25;36.75;;;;;4.15;100.00;101128.84;4917915;28;49835;-65
2022/12/10 18:06:53;;;;;;;;;40.50;33.75;;;;;3.83;100.00;101075.19;4917426;28;49866;-66
2022/12/10 18:09:18;;;;;;;;;35.50;34.75;;;;;4.11;100.00;101133.78;4918285;28;49707;-67
2022/12/10 18:11:47;;;;;;;;;37.00;35.50;;;;;2.66;100.00;100898.53;4917241;28;64214;-76
2022/12/10 18:14:13;;;;;;;;;44.25;37.00;;;;;4.06;100.00;101130.97;4917804;28;49780;-73
2022/12/10 18:16:39;;;;;;;;;45.25;39.75;;;;;3.46;100.00;101030.81;4918001;28;49858;-72
2022/12/10 18:19:12;;;;;;;;;40.75;35.25;;;;;4.04;100.00;101140.38;4918112;28;49762;-67
2022/12/10 18:21:38;;;;;;;;;48.75;41.50;;;;;4.02;100.00;101129.91;4917385;28;51502;-66
2022/12/10 18:24:03;;;;;;;;;47.50;38.50;;;;;3.79;100.00;101100.94;4916688;28;54316;-68
2022/12/10 18:26:34;;;;;;;;;51.25;45.00;;;;;3.97;100.00;101123.59;4918079;28;49704;-68
2022/12/10 18:29:02;;;;;;;;;61.75;46.00;;;;;3.91;100.00;101111.97;4917952;28;49575;-65
2022/12/10 18:31:33;;;;;;;;;59.25;46.00;;;;;3.88;100.00;101107.50;4915827;28;50809;-63
2022/12/10 18:34:03;;;;;;;;;54.50;45.25;;;;;3.92;100.00;101117.22;4916419;28;49810;-65
2022/12/10 18:36:32;;;;;;;;;63.50;46.00;;;;;3.49;100.00;101062.13;4914978;28;50104;-72
2022/12/10 18:38:59;;;;;;;;;47.50;37.75;;;;;3.88;100.00;101125.69;4917128;28;49710;-71
2022/12/10 18:41:26;;;;;;;;;56.75;49.00;;;;;3.64;100.00;101090.59;4932044;28;50792;-68
2022/12/10 18:43:51;;;;;;;;;64.25;48.50;;;;;3.84;100.00;101121.13;4917164;28;49631;-62
2022/12/10 18:46:21;;;;;;;;;64.50;51.00;;;;;3.81;100.00;101113.19;4916284;28;50024;-66
2022/12/10 18:48:46;;;;;;;;;62.25;47.50;;;;;3.81;100.00;101113.19;4917582;28;49899;-65
2022/12/10 18:51:14;;;;;;;;;60.50;50.75;;;;;3.72;100.00;101107.50;4916966;28;50337;-67
2022/12/10 18:53:41;;;;;;;;;49.50;45.00;;;;;3.73;100.00;101128.34;4917357;28;49574;-68
2022/12/10 18:56:09;;;;;;;;;55.00;46.75;;;;;3.71;100.00;101118.69;4932481;28;49707;-63
2022/12/10 18:58:35;;;;;;;;;40.25;37.50;;;;;3.47;100.00;101081.00;4916306;28;49808;-67
2022/12/10 19:01:00;;;;;;;;;53.00;44.00;;;;;3.56;100.00;101103.16;4916734;28;50871;-68
2022/12/10 19:03:26;;;;;;;;;67.25;51.75;;;;;3.67;100.00;101117.66;4917073;28;49866;-70
2022/12/10 19:05:51;;;;;;;;;61.25;52.00;;;;;3.39;100.00;101075.44;4931673;28;50021;-67
2022/12/10 19:08:16;;;;;;;;;57.75;46.75;;;;;3.22;100.00;101055.44;4915743;28;49994;-66
2022/12/10 19:10:42;;;;;;;;;59.25;46.50;;;;;3.18;100.00;101056.97;4916952;28;50240;-65
2022/12/10 19:13:07;;;;;;;;;49.75;43.50;;;;;3.33;100.00;101095.84;4916649;28;50064;-68
2022/12/10 19:15:33;;;;;;;;;60.50;44.50;;;;;3.42;100.00;101110.22;4916943;28;49619;-65
2022/12/10 19:17:59;;;;;;;;;47.75;41.25;;;;;3.48;100.00;101126.94;4917286;28;49564;-69
2022/12/10 19:20:25;;;;;;;;;57.25;42.00;;;;;3.36;100.00;101103.78;4916226;28;50641;-66
2022/12/10 19:22:52;;;;;;;;;44.25;40.50;;;;;3.49;100.00;101136.53;4916875;28;50004;-66
2022/12/10 19:25:18;;;;;;;;;42.50;40.50;;;;;3.49;100.00;101137.41;4916735;28;49668;-65
2022/12/10 19:27:44;;;;;;;;;66.75;47.50;;;;;3.38;100.00;101136.81;4917137;28;49936;-70
2022/12/10 19:30:28;;;;;;;;;59.75;48.00;;;;;3.27;100.00;101155.16;4931045;28;50362;-71
2022/12/10 19:32:54;;;;;;;;;51.75;43.00;;;;;3.23;100.00;101143.75;4916868;28;49718;-69
2022/12/10 19:35:24;;;;;;;;;50.00;34.50;;;;;3.21;100.00;101147.97;4916206;28;49681;-66
2022/12/10 19:37:51;;;;;;;;;44.50;40.00;;;;;3.22;100.00;101149.75;4916721;28;49786;-64
2022/12/10 19:40:22;;;;;;;;;40.25;36.50;;;;;3.24;100.00;101149.81;4916345;28;49758;-65
2022/12/10 19:42:48;;;;;;;;;50.50;44.50;;;;;3.28;100.00;101147.50;4916384;28;49948;-65
2022/12/10 19:45:15;;;;;;;;;54.50;47.25;;;;;3.05;100.00;101101.19;4916573;28;49931;-67
2022/12/10 19:47:41;;;;;;;;;57.50;44.75;;;;;2.62;100.00;101018.41;4916525;28;49699;-66
2022/12/10 19:50:09;;;;;;;;;60.00;46.00;;;;;3.14;100.00;101101.72;4915933;28;50530;-65
2022/12/10 19:52:34;;;;;;;;;61.75;44.50;;;;;3.11;100.00;101076.50;4916444;28;49814;-70
2022/12/10 19:55:00;;;;;;;;;67.50;48.75;;;;;3.39;100.00;101130.81;4916368;28;49819;-67
2022/12/10 19:57:26;;;;;;;;;46.00;38.50;;;;;3.41;100.00;101131.78;4916474;28;50022;-69
2022/12/10 19:59:51;;;;;;;;;56.25;46.75;;;;;3.41;100.00;101133.50;4916229;28;50917;-67
2022/12/10 20:02:17;;;;;;;;;51.00;43.50;;;;;3.38;100.00;101118.66;4915920;28;49774;-69
2022/12/10 20:04:43;;;;;;;;;61.50;46.00;;;;;3.52;100.00;101153.16;4914158;28;49760;-64
2022/12/10 20:07:09;;;;;;;;;52.50;44.00;;;;;3.49;100.00;101141.72;4915644;28;49739;-66
2022/12/10 20:09:34;;;;;;;;;51.00;43.00;;;;;3.59;100.00;101162.19;4915671;28;49867;-65
2022/12/10 20:12:00;;;;;;;;;49.25;42.25;;;;;3.58;100.00;101150.91;4915353;28;49672;-70
2022/12/10 20:14:26;;;;;;;;;45.00;39.25;;;;;3.63;100.00;101153.72;4915761;28;50641;-66
2022/12/10 20:16:51;;;;;;;;;57.75;43.50;;;;;2.97;100.00;101042.81;4915654;28;49978;-69
2022/12/10 20:19:19;;;;;;;;;65.75;45.00;;;;;3.65;100.00;101157.28;4915594;28;49837;-67
2022/12/10 20:21:45;;;;;;;;;56.50;47.25;;;;;3.65;100.00;101157.28;4915572;28;49824;-69
2022/12/10 20:24:11;;;;;;;;;52.25;44.50;;;;;3.64;100.00;101163.31;4915847;28;49873;-66
2022/12/10 20:26:39;;;;;;;;;47.50;41.75;;;;;3.57;100.00;101136.13;4915777;28;49651;-68
2022/12/10 20:29:17;;;;;;;;;44.75;37.25;;;;;3.63;100.00;101146.84;4915349;28;50679;-66
2022/12/10 20:31:43;;;;;;;;;50.25;39.25;;;;;3.44;100.00;101108.59;4909524;28;49819;-66
2022/12/10 20:34:08;;;;;;;;;37.00;32.75;;;;;3.59;100.00;101125.81;4915811;28;49970;-66
2022/12/10 20:36:36;;;;;;;;;45.50;41.75;;;;;3.60;100.00;101125.91;4915637;28;49877;-69
2022/12/10 20:39:04;;;;;;;;;40.75;34.75;;;;;3.53;100.00;101121.19;4914342;28;52676;-68
2022/12/10 20:41:29;;;;;;;;;52.25;43.00;;;;;3.64;100.00;101148.63;4915702;28;49986;-67
2022/12/10 20:43:55;;;;;;;;;43.00;34.00;;;;;3.50;100.00;101151.28;4915375;28;49814;-68